NCAR-RAP Real-Time Weather Data

Output produced by METARs form (31 May 2020  13:07 UTC)
found at http://weather.rap.ucar.edu/surface/
 
RJBB 311300Z 19003KT 9999 FEW020 SCT045 20/18 Q1014 NOSIG
 
RJBD 311000Z 09005KT 040V110 9999 FEW015 SCT020 BKN050 20/16 Q1013
 
RJBE 311300Z 04008KT 9999 FEW020 SCT050 BKN080 20/14 Q1013
 
RJBT 310900Z 16004KT 9999 FEW020 SCT060 BKN090 19/16 Q1013
 
RJOA 311300Z 07009KT 9999 FEW015 SCT030 BKN060 17/16 Q1013
 
RJOB 311200Z 08007KT 9999 FEW010 SCT020 BKN045 18/15 Q1014
 
RJOC 311100Z 14007KT 9999 FEW030 BKN070 21/16 Q1011
 
RJOH 311300Z VRB02KT 9999 FEW030 BKN070 20/16 Q1011
 
RJOI 311255Z 29003KT 9999 FEW020 BKN030 BKN065 21/17 A2989 RMK SLP123 T02060172
 
RJOK 311100Z 33005KT 9999 -SHRA FEW003 SCT010 BKN020 19/19 Q1013
 
RJOM 311200Z 20002KT 9999 FEW012 SCT045 BKN070 19/18 Q1012
 
RJOO 311100Z 08011KT 9999 FEW015 SCT045 20/15 Q1013 RMK 1CU015 4CU045 A2994
 
RJOR 311200Z 16009G20KT 120V190 9999 FEW020 SCT040 BKN080 22/15 Q1011
 
RJOT 311200Z 10006KT 070V130 9999 FEW015 18/16 Q1013
 
RJOW 311000Z VRB02KT 9999 FEW030 SCT050 BKN/// 22/16 Q1010
 
RJOY 311000Z 09009KT 060V130 9999 FEW025 BKN050 BKN080 21/15 Q1014
 
RJDC 311200Z 09016KT 9999 FEW020 BKN050 20/18 Q1011
 
RJDT 311100Z 04002KT CAVOK 19/18 Q1010
 
RJFE 311000Z 19005KT 9999 FEW015 SCT020 BKN060 21/19 Q1010
 
RJFF 311300Z 07003KT 9999 FEW030 SCT040 BKN045 22/19 Q1010 NOSIG RMK 1CU030 3CU040 6CU045 A2984
 
RJFG 310900Z 05006KT 350V110 0100 R31/0300V0400N -SHRA FG VV001 20/19 Q1010
 
RJFK 311200Z 12008KT 9999 FEW010 BKN035 20/18 Q1011 RMK 2CU010 7CU035 A2988
 
RJFO 311300Z 22003KT 9999 FEW035 BKN060 19/18 Q1011
 
RJFR 311300Z VRB09KT 9999 FEW010 BKN050 20/18 Q1011
 
RJFS 311300Z 26005KT 9999 FEW045 BKN060 23/20 Q1010
 
RJFT 311200Z 09006KT 9999 FEW020 SCT035 BKN060 22/17 Q1011
 
RJFU 311200Z 29003KT 9999 SCT030 BKN050 23/19 Q1010
 
RJFM 311200Z 36008KT 8000 -SHRA FEW003 SCT007 BKN008 20/19 Q1011